Time;durP1;ratioP1;P1;durP2;ratioP2;P2;SDS_P1;SDS_P2;PMS_P1;PMS_P2;Temp;Humidity;BMP_temperature;BMP_pressure;BME280_temperature;BME280_humidity;BME280_pressure;Samples;Min_cycle;Max_cycle;Signal;HPM_P1;HPM_P2
2022/04/19 00:01:39;;;;;;;2.53;2.33;;;17.10;56.20;;;;;;5052066;28;20466;-74
2022/04/19 00:04:07;;;;;;;2.70;1.87;;;17.10;56.00;;;;;;5036417;28;20475;-74
2022/04/19 00:06:36;;;;;;;1.73;1.63;;;17.10;56.10;;;;;;5031889;28;20523;-73
2022/04/19 00:09:04;;;;;;;2.60;1.70;;;17.10;56.20;;;;;;5032084;28;20527;-73
2022/04/19 00:11:32;;;;;;;2.77;2.30;;;17.10;56.20;;;;;;5031570;28;21059;-73
2022/04/19 00:14:00;;;;;;;2.07;1.87;;;17.10;56.30;;;;;;5030895;28;20965;-73
2022/04/19 00:16:30;;;;;;;2.20;1.87;;;17.10;56.30;;;;;;5031972;28;20459;-73
2022/04/19 00:18:59;;;;;;;2.03;1.70;;;17.10;56.40;;;;;;5033544;28;20452;-73
2022/04/19 00:21:27;;;;;;;2.03;1.93;;;17.10;56.40;;;;;;5051536;28;20467;-73
2022/04/19 00:23:55;;;;;;;2.70;2.00;;;17.10;56.60;;;;;;5048165;28;20468;-73
2022/04/19 00:26:26;;;;;;;3.00;1.70;;;17.10;56.50;;;;;;5031704;28;20460;-73
2022/04/19 00:28:54;;;;;;;2.00;1.80;;;17.00;56.70;;;;;;5031979;28;20910;-74
2022/04/19 00:31:22;;;;;;;3.50;1.57;;;17.10;56.60;;;;;;5031498;28;20484;-73
2022/04/19 00:33:52;;;;;;;3.93;2.10;;;17.10;57.10;;;;;;5034481;28;20462;-73
2022/04/19 00:36:23;;;;;;;2.00;1.80;;;17.10;56.60;;;;;;5051387;28;20633;-73
2022/04/19 00:38:51;;;;;;;2.40;1.97;;;17.10;56.60;;;;;;5043296;28;20462;-72
2022/04/19 00:41:19;;;;;;;3.03;1.97;;;17.10;56.70;;;;;;5051526;28;20459;-73
2022/04/19 00:43:47;;;;;;;3.03;2.23;;;17.10;56.70;;;;;;5051447;28;20973;-73
2022/04/19 00:46:16;;;;;;;2.37;1.80;;;17.00;56.60;;;;;;5049984;28;20463;-73
2022/04/19 00:48:45;;;;;;;2.20;2.00;;;17.10;56.90;;;;;;5051705;28;20879;-73
2022/04/19 00:51:17;;;;;;;2.10;1.90;;;17.00;56.70;;;;;;5049944;28;20466;-73
2022/04/19 00:53:47;;;;;;;2.27;2.07;;;17.00;56.70;;;;;;5047956;28;20542;-74
2022/04/19 00:56:16;;;;;;;3.17;2.07;;;17.00;56.70;;;;;;5049358;28;20558;-73
2022/04/19 00:58:44;;;;;;;2.10;1.80;;;17.00;57.00;;;;;;5050671;28;20435;-73
2022/04/19 01:01:13;;;;;;;2.77;1.93;;;17.00;57.30;;;;;;5053469;28;21038;-73
2022/04/19 01:03:42;;;;;;;2.90;1.97;;;17.00;57.20;;;;;;5043319;28;20555;-73
2022/04/19 01:06:18;;;;;;;2.93;1.70;;;17.00;57.00;;;;;;5033913;28;20455;-73
2022/04/19 01:08:48;;;;;;;2.03;1.83;;;17.00;57.00;;;;;;5034372;28;20803;-73
2022/04/19 01:14:07;;;;;;;2.70;1.70;;;17.00;56.90;;;;;;5034018;28;20447;-73
2022/04/19 01:16:40;;;;;;;2.27;2.07;;;17.00;57.00;;;;;;5035085;28;20796;-73
2022/04/19 01:19:14;;;;;;;1.90;1.70;;;17.00;57.10;;;;;;5035313;28;20451;-74
2022/04/19 01:21:46;;;;;;;2.83;2.10;;;17.00;57.00;;;;;;5050515;28;20984;-73
2022/04/19 01:24:20;;;;;;;2.40;2.00;;;17.00;57.00;;;;;;5034419;28;20469;-73
2022/04/19 01:26:53;;;;;;;2.17;1.80;;;17.00;57.10;;;;;;5033720;28;20467;-73
2022/04/19 01:29:21;;;;;;;1.90;1.70;;;17.00;57.20;;;;;;5035296;28;20416;-73
2022/04/19 01:31:52;;;;;;;2.23;2.03;;;16.90;57.20;;;;;;5033390;28;20892;-74
2022/04/19 01:34:23;;;;;;;2.20;2.00;;;17.00;57.20;;;;;;5035017;28;20443;-73
2022/04/19 01:36:58;;;;;;;2.93;2.30;;;17.00;57.00;;;;;;5033441;28;20459;-74
2022/04/19 01:42:10;;;;;;;2.27;2.03;;;17.00;57.30;;;;;;5049346;28;20471;-73
2022/04/19 01:44:45;;;;;;;3.73;2.30;;;17.00;57.40;;;;;;5050184;28;20566;-72
2022/04/19 01:47:13;;;;;;;3.50;2.40;;;17.00;57.40;;;;;;5034452;28;20472;-73
2022/04/19 01:49:46;;;;;;;2.33;1.97;;;17.00;57.60;;;;;;5016990;28;20459;-73
2022/04/19 01:52:16;;;;;;;2.20;1.70;;;16.90;57.40;;;;;;5034457;28;20468;-73
2022/04/19 01:54:45;;;;;;;1.93;1.73;;;16.90;57.80;;;;;;5034355;28;21008;-73
2022/04/19 01:57:22;;;;;;;1.93;1.73;;;16.90;58.10;;;;;;5045718;28;20812;-73
2022/04/19 01:59:53;;;;;;;2.37;1.60;;;16.90;57.80;;;;;;5053158;28;20987;-73
2022/04/19 02:02:30;;;;;;;2.00;1.80;;;16.90;57.50;;;;;;5053040;28;20533;-73
2022/04/19 02:04:58;;;;;;;2.53;1.83;;;16.90;57.60;;;;;;5033368;28;20468;-73
2022/04/19 02:07:28;;;;;;;2.50;2.20;;;16.90;57.50;;;;;;5032771;28;20467;-73
2022/04/19 02:09:58;;;;;;;2.93;2.63;;;16.90;57.50;;;;;;5052581;28;20863;-73
2022/04/19 02:12:28;;;;;;;3.17;1.80;;;16.90;57.50;;;;;;5051435;28;20508;-74
2022/04/19 02:15:06;;;;;;;2.87;2.40;;;16.90;57.60;;;;;;5052999;28;20821;-73
2022/04/19 02:17:34;;;;;;;2.27;2.07;;;16.90;57.60;;;;;;5051336;28;20517;-74
2022/04/19 02:20:04;;;;;;;2.27;2.00;;;16.90;57.50;;;;;;5054164;28;20961;-74
2022/04/19 02:22:35;;;;;;;3.27;2.20;;;16.90;57.70;;;;;;5053795;28;20509;-73
2022/04/19 02:25:03;;;;;;;3.37;2.67;;;16.90;57.60;;;;;;5040553;28;20471;-73
2022/04/19 02:27:33;;;;;;;3.00;1.90;;;16.90;57.50;;;;;;5032593;28;20471;-72
2022/04/19 02:30:04;;;;;;;2.40;1.67;;;16.90;57.60;;;;;;5033008;28;20428;-73
2022/04/19 02:32:34;;;;;;;2.53;2.23;;;16.90;57.60;;;;;;5033691;28;20464;-73
2022/04/19 02:35:03;;;;;;;1.90;1.60;;;16.80;57.60;;;;;;5049323;28;20518;-72
2022/04/19 02:37:33;;;;;;;4.40;2.20;;;16.80;57.60;;;;;;5033370;28;20464;-73
2022/04/19 02:40:01;;;;;;;3.20;1.90;;;16.80;57.60;;;;;;5032833;28;20554;-73
2022/04/19 02:42:30;;;;;;;2.57;2.30;;;16.80;57.60;;;;;;5034737;28;20494;-73
2022/04/19 02:44:58;;;;;;;2.00;1.80;;;16.80;57.80;;;;;;5032417;28;20483;-73
2022/04/19 02:47:27;;;;;;;3.10;2.23;;;16.80;57.80;;;;;;5032546;28;20774;-73
2022/04/19 02:49:55;;;;;;;2.23;2.00;;;16.80;57.70;;;;;;5062338;28;20534;-73
2022/04/19 02:52:23;;;;;;;2.20;2.00;;;16.80;57.70;;;;;;5051613;28;20906;-73
2022/04/19 02:54:54;;;;;;;3.13;1.70;;;16.80;57.70;;;;;;5040453;28;20467;-73
2022/04/19 02:57:22;;;;;;;3.30;1.90;;;16.80;57.80;;;;;;5044301;28;20467;-73
2022/04/19 02:59:51;;;;;;;1.90;1.70;;;16.80;57.80;;;;;;5052364;28;20473;-73
2022/04/19 03:02:19;;;;;;;2.20;2.00;;;16.70;57.80;;;;;;5051525;28;20475;-73
2022/04/19 03:04:47;;;;;;;1.90;1.70;;;16.80;57.90;;;;;;5051720;28;20454;-73
2022/04/19 03:07:16;;;;;;;1.73;1.53;;;16.80;57.80;;;;;;5051728;28;20806;-73
2022/04/19 03:09:44;;;;;;;1.83;1.73;;;16.80;57.90;;;;;;5052395;28;20478;-72
2022/04/19 03:12:15;;;;;;;2.93;2.00;;;16.80;57.90;;;;;;5052792;28;20459;-73
2022/04/19 03:14:58;;;;;;;2.57;1.87;;;16.80;58.00;;;;;;5051661;28;20453;-73
2022/04/19 03:17:26;;;;;;;3.23;2.37;;;16.70;57.90;;;;;;5051716;28;20478;-73
2022/04/19 03:19:54;;;;;;;2.93;2.47;;;16.80;58.10;;;;;;5032807;28;20983;-73
2022/04/19 03:22:23;;;;;;;2.47;1.97;;;16.70;57.90;;;;;;5031057;28;20468;-73
2022/04/19 03:27:50;;;;;;;2.33;1.73;;;16.70;58.00;;;;;;5047830;28;20981;-73
2022/04/19 03:30:21;;;;;;;1.77;1.67;;;16.70;58.10;;;;;;5031776;28;20937;-72
2022/04/19 03:32:52;;;;;;;2.47;2.10;;;16.70;58.10;;;;;;5032355;28;20880;-73
2022/04/19 03:35:21;;;;;;;3.03;2.47;;;16.70;58.20;;;;;;5032534;28;20478;-73
2022/04/19 03:37:49;;;;;;;3.37;2.37;;;16.70;58.20;;;;;;5032105;28;20472;-73
2022/04/19 03:40:17;;;;;;;3.30;1.80;;;16.70;58.10;;;;;;5032379;28;20440;-73
2022/04/19 03:42:45;;;;;;;2.37;1.70;;;16.70;58.20;;;;;;5031137;28;20459;-73
2022/04/19 03:45:15;;;;;;;3.00;2.10;;;16.70;58.20;;;;;;5031452;28;20834;-72
2022/04/19 03:47:43;;;;;;;2.77;1.83;;;16.70;58.30;;;;;;5030943;28;20471;-73
2022/04/19 03:50:11;;;;;;;2.10;1.77;;;16.70;58.40;;;;;;5031151;28;20444;-73
2022/04/19 03:52:39;;;;;;;2.40;1.90;;;16.70;58.40;;;;;;5032162;28;20483;-71
2022/04/19 03:55:08;;;;;;;2.80;2.50;;;16.60;58.30;;;;;;5044693;28;20869;-73
2022/04/19 03:57:38;;;;;;;2.27;1.90;;;16.60;58.30;;;;;;5050676;28;20466;-73
2022/04/19 04:00:10;;;;;;;2.47;2.00;;;16.60;58.30;;;;;;5051545;28;20427;-73
2022/04/19 04:02:47;;;;;;;2.77;1.80;;;16.60;58.30;;;;;;5056013;28;20463;-73
2022/04/19 04:05:25;;;;;;;2.47;2.00;;;16.60;58.30;;;;;;5051339;28;20518;-73
2022/04/19 04:07:58;;;;;;;2.33;2.10;;;16.60;58.30;;;;;;5050649;28;21003;-74
2022/04/19 04:10:29;;;;;;;2.57;1.80;;;16.60;58.30;;;;;;5034568;28;20447;-73
2022/04/19 04:12:59;;;;;;;3.23;2.40;;;16.60;58.40;;;;;;5031811;28;20475;-73
2022/04/19 04:15:29;;;;;;;2.60;2.40;;;16.60;58.50;;;;;;5031025;28;20503;-73
2022/04/19 04:17:59;;;;;;;3.00;2.33;;;16.60;58.60;;;;;;5030737;28;20466;-73
2022/04/19 04:20:28;;;;;;;2.30;1.97;;;16.60;58.70;;;;;;5049608;28;20485;-73
2022/04/19 04:22:56;;;;;;;2.10;1.50;;;16.60;58.90;;;;;;5050590;28;20513;-73
2022/04/19 04:25:24;;;;;;;2.50;1.70;;;16.60;59.10;;;;;;5046725;28;20909;-73
2022/04/19 04:27:53;;;;;;;3.00;2.13;;;16.60;59.00;;;;;;5030426;28;20495;-73
2022/04/19 04:30:23;;;;;;;2.20;1.60;;;16.60;58.80;;;;;;5030924;28;20424;-73
2022/04/19 04:33:00;;;;;;;2.90;2.30;;;16.50;58.60;;;;;;5030424;28;20480;-73
2022/04/19 04:35:28;;;;;;;4.03;2.30;;;16.50;58.80;;;;;;5030556;28;20448;-72
2022/04/19 04:37:57;;;;;;;7.67;2.50;;;16.50;58.70;;;;;;5030253;28;20873;-74
2022/04/19 04:40:27;;;;;;;3.67;2.30;;;16.50;58.70;;;;;;5042746;28;20573;-72
2022/04/19 04:43:03;;;;;;;2.33;2.03;;;16.50;58.60;;;;;;5029981;28;20464;-73
2022/04/19 04:45:32;;;;;;;2.50;2.20;;;16.50;58.60;;;;;;5047294;28;20651;-73
2022/04/19 04:50:48;;;;;;;3.40;2.43;;;16.50;58.70;;;;;;5030484;28;20539;-73
2022/04/19 04:53:16;;;;;;;3.10;2.37;;;16.50;58.70;;;;;;5035238;28;20994;-72
2022/04/19 04:55:58;;;;;;;3.17;2.10;;;16.50;58.90;;;;;;5031420;28;20435;-73
2022/04/19 04:58:28;;;;;;;3.87;2.53;;;16.40;58.70;;;;;;5050223;28;20512;-73
2022/04/19 05:00:56;;;;;;;3.17;1.80;;;16.40;58.60;;;;;;5051217;28;20484;-73
2022/04/19 05:03:28;;;;;;;2.00;1.80;;;16.40;58.80;;;;;;5049673;28;20495;-73
2022/04/19 05:05:58;;;;;;;2.43;2.23;;;16.40;58.60;;;;;;5049778;28;20442;-73
2022/04/19 05:08:26;;;;;;;4.00;2.80;;;16.40;58.90;;;;;;5050566;28;20423;-73
2022/04/19 05:10:56;;;;;;;2.70;1.80;;;16.40;58.90;;;;;;5029875;28;20448;-73
2022/04/19 05:13:27;;;;;;;2.63;2.10;;;16.40;58.90;;;;;;5030476;28;20538;-72
2022/04/19 05:15:58;;;;;;;3.57;2.10;;;16.40;58.90;;;;;;5046115;28;20428;-73
2022/04/19 05:18:33;;;;;;;2.73;2.47;;;16.40;58.80;;;;;;5040781;28;20447;-73
2022/04/19 05:21:02;;;;;;;4.10;2.17;;;16.40;58.90;;;;;;5041704;28;20459;-73
2022/04/19 05:23:31;;;;;;;2.10;1.90;;;16.40;58.90;;;;;;5030249;28;20448;-73
2022/04/19 05:25:59;;;;;;;7.07;1.80;;;16.40;58.90;;;;;;5047836;28;20443;-73
2022/04/19 05:28:28;;;;;;;1.90;1.60;;;16.40;59.00;;;;;;5049923;28;20424;-73
2022/04/19 05:31:00;;;;;;;2.40;2.20;;;16.40;59.00;;;;;;5048614;28;20443;-73
2022/04/19 05:33:28;;;;;;;2.63;2.20;;;16.30;59.00;;;;;;5048553;28;20474;-73
2022/04/19 05:35:58;;;;;;;3.23;2.40;;;16.40;59.20;;;;;;5050118;28;20932;-73
2022/04/19 05:38:27;;;;;;;2.20;1.57;;;16.40;59.10;;;;;;5050626;28;20431;-73
2022/04/19 05:40:55;;;;;;;1.73;1.60;;;16.40;59.10;;;;;;5049078;28;20437;-73
2022/04/19 05:43:24;;;;;;;2.63;2.07;;;16.30;59.10;;;;;;5049609;28;21090;-73
2022/04/19 05:45:52;;;;;;;2.40;1.87;;;16.40;59.10;;;;;;5049629;28;20438;-73
2022/04/19 05:48:20;;;;;;;3.67;2.33;;;16.30;59.20;;;;;;5051576;28;20809;-73
2022/04/19 05:50:49;;;;;;;3.40;2.40;;;16.30;59.10;;;;;;5051501;28;20439;-73
2022/04/19 05:53:18;;;;;;;3.70;2.00;;;16.30;59.10;;;;;;5052898;28;20447;-73
2022/04/19 05:55:46;;;;;;;2.63;2.30;;;16.30;59.10;;;;;;5052221;28;20439;-73
2022/04/19 05:58:16;;;;;;;2.67;2.30;;;16.30;59.10;;;;;;5053013;28;20513;-73
2022/04/19 06:00:44;;;;;;;3.70;2.20;;;16.30;59.20;;;;;;5053263;28;20470;-73
2022/04/19 06:05:58;;;;;;;2.37;2.17;;;16.30;59.30;;;;;;5053332;28;20442;-73
2022/04/19 06:08:28;;;;;;;3.37;2.33;;;16.30;59.40;;;;;;5052796;28;20435;-73
2022/04/19 06:11:07;;;;;;;6.40;2.53;;;16.30;59.40;;;;;;5052989;28;20454;-73
2022/04/19 06:13:35;;;;;;;2.67;2.20;;;16.30;59.40;;;;;;5052530;28;20557;-73
2022/04/19 06:16:05;;;;;;;2.83;2.23;;;16.30;59.50;;;;;;5053586;28;20462;-73
2022/04/19 06:18:37;;;;;;;2.17;1.97;;;16.30;59.60;;;;;;5051957;28;20956;-74
2022/04/19 06:21:18;;;;;;;2.63;2.00;;;16.30;59.60;;;;;;5052218;28;20506;-73
2022/04/19 06:23:48;;;;;;;2.73;1.97;;;16.30;59.60;;;;;;5050148;28;20542;-73
2022/04/19 06:26:17;;;;;;;2.50;1.50;;;16.30;59.60;;;;;;5050951;28;20562;-73
2022/04/19 06:28:46;;;;;;;2.13;1.87;;;16.30;59.80;;;;;;5052426;28;20440;-73
2022/04/19 06:31:17;;;;;;;3.10;2.00;;;16.30;59.80;;;;;;5052505;28;21003;-73
2022/04/19 06:34:04;;;;;;;2.20;1.90;;;16.30;59.80;;;;;;5047331;28;20474;-73
2022/04/19 06:36:52;;;;;;;2.53;1.80;;;16.30;60.00;;;;;;5051628;28;20545;-73
2022/04/19 06:39:21;;;;;;;3.43;2.30;;;16.30;59.50;;;;;;5048179;28;20448;-73
2022/04/19 06:41:51;;;;;;;2.97;1.93;;;16.20;59.40;;;;;;5051440;28;20470;-73
2022/04/19 06:44:21;;;;;;;2.37;2.13;;;16.30;59.80;;;;;;5050856;28;20447;-73
2022/04/19 06:46:58;;;;;;;2.77;2.13;;;16.30;60.10;;;;;;5050823;28;20474;-73
2022/04/19 06:49:26;;;;;;;2.60;2.40;;;16.20;60.20;;;;;;5045960;28;20445;-73
2022/04/19 06:51:55;;;;;;;3.53;2.33;;;16.30;60.10;;;;;;5051682;28;20471;-73
2022/04/19 06:54:24;;;;;;;1.97;1.80;;;16.30;60.20;;;;;;5051302;28;20830;-73
2022/04/19 06:56:55;;;;;;;3.00;2.40;;;16.30;60.30;;;;;;5052205;28;20511;-73
2022/04/19 06:59:23;;;;;;;2.63;1.90;;;16.30;60.00;;;;;;5051630;28;21097;-73
2022/04/19 07:01:51;;;;;;;3.17;2.30;;;16.30;60.20;;;;;;5050670;28;21150;-74
2022/04/19 07:04:29;;;;;;;1.87;1.50;;;16.30;60.00;;;;;;5051065;28;20451;-73
2022/04/19 07:07:01;;;;;;;2.33;1.47;;;16.40;60.00;;;;;;5066829;28;20512;-73
2022/04/19 07:09:31;;;;;;;2.27;1.90;;;16.30;59.80;;;;;;5040494;28;20452;-73
2022/04/19 07:12:00;;;;;;;1.57;1.47;;;16.40;60.00;;;;;;5051010;28;20505;-73
2022/04/19 07:14:34;;;;;;;3.97;1.73;;;16.40;60.10;;;;;;5051652;28;20467;-73
2022/04/19 07:17:02;;;;;;;2.60;1.67;;;16.40;60.00;;;;;;5049966;28;20473;-73
2022/04/19 07:28:07;;;;;;;2.23;1.90;;;16.40;60.00;;;;;;5065955;28;20454;-73
2022/04/19 07:30:43;;;;;;;2.67;1.90;;;16.40;59.70;;;;;;5071393;28;20441;-73
2022/04/19 07:33:12;;;;;;;2.87;1.90;;;16.40;59.70;;;;;;5061343;28;20475;-73
2022/04/19 07:35:43;;;;;;;1.70;1.53;;;16.40;59.70;;;;;;5069859;28;20438;-73
2022/04/19 07:38:12;;;;;;;2.13;1.93;;;16.40;59.40;;;;;;5070635;28;20486;-73
2022/04/19 07:40:58;;;;;;;1.60;1.30;;;16.40;59.50;;;;;;5069843;28;20520;-73
2022/04/19 07:43:26;;;;;;;1.53;1.37;;;16.50;59.40;;;;;;5071210;28;20450;-73
2022/04/19 07:45:54;;;;;;;2.40;2.07;;;16.40;59.30;;;;;;5070151;28;20777;-73
2022/04/19 07:48:23;;;;;;;2.50;2.30;;;16.50;59.30;;;;;;5083100;28;20529;-72
2022/04/19 07:50:51;;;;;;;2.30;1.70;;;16.50;59.30;;;;;;5071470;28;20427;-73
2022/04/19 07:53:19;;;;;;;2.57;1.50;;;16.50;59.30;;;;;;5070113;28;20486;-74
2022/04/19 07:55:47;;;;;;;2.17;1.97;;;16.50;59.20;;;;;;5070606;28;20445;-73
2022/04/19 07:58:17;;;;;;;1.87;1.67;;;16.40;59.10;;;;;;5070665;28;20454;-73
2022/04/19 08:00:45;;;;;;;2.30;2.10;;;16.50;59.10;;;;;;5071876;28;20431;-73
2022/04/19 08:03:13;;;;;;;2.37;1.63;;;16.50;59.20;;;;;;5070150;28;20446;-73
2022/04/19 08:05:42;;;;;;;1.73;1.50;;;16.40;59.00;;;;;;5069622;28;20442;-73
2022/04/19 08:08:11;;;;;;;3.23;2.10;;;16.50;59.00;;;;;;5071367;28;20489;-73
2022/04/19 08:10:39;;;;;;;5.13;2.07;;;16.50;59.00;;;;;;5068979;28;20786;-73
2022/04/19 08:13:09;;;;;;;1.70;1.60;;;16.50;59.10;;;;;;5070489;28;20466;-73
2022/04/19 08:15:39;;;;;;;2.20;1.83;;;16.50;59.10;;;;;;5071401;28;20430;-73
2022/04/19 08:18:14;;;;;;;3.27;1.97;;;16.50;59.00;;;;;;5065772;28;20496;-73
2022/04/19 08:20:51;;;;;;;2.30;2.07;;;16.50;59.00;;;;;;5060409;28;20430;-73
2022/04/19 08:23:21;;;;;;;2.60;1.73;;;16.50;59.00;;;;;;5070403;28;20503;-72
2022/04/19 08:25:59;;;;;;;1.73;1.60;;;16.50;59.10;;;;;;5070063;28;20430;-73
2022/04/19 08:28:29;;;;;;;1.80;1.70;;;16.40;59.00;;;;;;5069511;28;20492;-73
2022/04/19 08:30:58;;;;;;;2.07;1.87;;;16.50;59.00;;;;;;5070382;28;20472;-73
2022/04/19 08:33:31;;;;;;;3.43;1.73;;;16.50;59.00;;;;;;5068285;28;20473;-73
2022/04/19 08:36:00;;;;;;;2.07;1.93;;;16.50;59.10;;;;;;5069222;28;20441;-74
2022/04/19 08:38:30;;;;;;;3.20;2.00;;;16.50;59.10;;;;;;5070430;28;20438;-73
2022/04/19 08:41:00;;;;;;;2.03;1.50;;;16.40;59.00;;;;;;5069754;28;20457;-74
2022/04/19 08:43:29;;;;;;;2.10;1.77;;;16.40;60.30;;;;;;5068965;28;20480;-73
2022/04/19 08:46:00;;;;;;;1.80;1.60;;;16.50;59.10;;;;;;5069919;28;20457;-73
2022/04/19 08:48:28;;;;;;;3.20;2.00;;;16.50;59.10;;;;;;5068800;28;20443;-74
2022/04/19 08:50:56;;;;;;;2.57;1.87;;;16.50;59.10;;;;;;5070636;28;20484;-73
2022/04/19 08:58:56;;;;;;;1.90;1.80;;;16.50;59.30;;;;;;5071064;28;20488;-74
2022/04/19 09:01:25;;;;;;;2.40;2.20;;;16.50;59.20;;;;;;5070728;28;20470;-74
2022/04/19 09:03:54;;;;;;;2.13;1.80;;;16.50;59.20;;;;;;5063656;28;20962;-73
2022/04/19 09:06:42;;;;;;;2.07;1.87;;;16.50;59.30;;;;;;5071032;28;20519;-73
2022/04/19 09:09:11;;;;;;;2.20;2.00;;;16.50;59.20;;;;;;5066144;28;20439;-73
2022/04/19 09:11:39;;;;;;;2.10;1.50;;;16.50;59.20;;;;;;5070311;28;20466;-73
2022/04/19 09:14:08;;;;;;;2.20;2.00;;;16.40;59.10;;;;;;5069705;28;20825;-73
2022/04/19 09:16:37;;;;;;;2.17;1.97;;;16.40;59.10;;;;;;5066181;28;20576;-73
2022/04/19 09:19:09;;;;;;;4.40;1.93;;;16.40;59.10;;;;;;5068504;28;20450;-73
2022/04/19 09:21:38;;;;;;;3.00;1.77;;;16.40;59.10;;;;;;5072642;28;20453;-73
2022/04/19 09:24:18;;;;;;;2.00;1.80;;;16.40;59.10;;;;;;5069626;28;20517;-73
2022/04/19 09:26:48;;;;;;;2.07;1.87;;;16.40;59.20;;;;;;5073981;28;20469;-73
2022/04/19 09:29:18;;;;;;;1.83;1.67;;;16.40;59.20;;;;;;5074912;28;20438;-74
2022/04/19 09:31:49;;;;;;;1.90;1.70;;;16.40;59.30;;;;;;5074112;28;20524;-72
2022/04/19 09:34:28;;;;;;;2.10;1.73;;;16.40;59.40;;;;;;5073885;28;20481;-73
2022/04/19 09:37:10;;;;;;;3.00;1.70;;;16.40;59.40;;;;;;5073993;28;21002;-73
2022/04/19 09:39:39;;;;;;;2.07;1.63;;;16.40;59.30;;;;;;5073664;28;20450;-73
2022/04/19 09:42:09;;;;;;;2.23;1.80;;;16.40;59.30;;;;;;5072827;28;20465;-73
2022/04/19 09:44:38;;;;;;;1.90;1.70;;;16.40;59.40;;;;;;5073700;28;20500;-73
2022/04/19 09:47:10;;;;;;;2.07;1.87;;;16.40;59.40;;;;;;5074167;28;20468;-73
2022/04/19 09:49:42;;;;;;;2.07;1.70;;;16.40;59.40;;;;;;5067903;28;20992;-73
2022/04/19 09:52:12;;;;;;;2.37;2.17;;;16.40;59.40;;;;;;5073268;28;20462;-73
2022/04/19 09:54:41;;;;;;;2.43;1.53;;;16.40;59.50;;;;;;5073086;28;20508;-73
2022/04/19 09:57:11;;;;;;;1.40;1.30;;;16.40;59.40;;;;;;5073704;28;20866;-73
2022/04/19 09:59:44;;;;;;;2.30;2.10;;;16.40;59.50;;;;;;5073853;28;20434;-73
2022/04/19 10:10:39;;;;;;;1.83;1.60;;;16.40;59.30;;;;;;5057168;28;20454;-73
2022/04/19 10:13:07;;;;;;;1.67;1.53;;;16.40;59.30;;;;;;5073669;28;20462;-73
2022/04/19 10:15:37;;;;;;;2.43;2.03;;;16.40;59.40;;;;;;5072266;28;20466;-73
2022/04/19 10:18:07;;;;;;;2.43;1.60;;;16.40;59.50;;;;;;5057383;28;21041;-72
2022/04/19 10:20:40;;;;;;;1.67;1.57;;;16.40;59.60;;;;;;5073791;28;20480;-72
2022/04/19 10:23:09;;;;;;;2.13;1.87;;;16.40;59.60;;;;;;5066277;28;20473;-72
2022/04/19 10:25:43;;;;;;;1.97;1.80;;;16.40;59.60;;;;;;5072658;28;20446;-73
2022/04/19 10:28:12;;;;;;;1.90;1.60;;;16.40;59.80;;;;;;5072980;28;20462;-73
2022/04/19 10:30:51;;;;;;;2.47;1.80;;;16.40;61.00;;;;;;5068883;28;20442;-73
2022/04/19 10:33:49;;;;;;;3.30;1.93;;;16.40;59.80;;;;;;5064986;28;20470;-73
2022/04/19 10:36:22;;;;;;;1.70;1.60;;;16.40;59.30;;;;;;5060435;28;20470;-73
2022/04/19 10:39:21;;;;;;;2.47;2.00;;;16.40;60.00;;;;;;5071341;28;20492;-73
2022/04/19 10:41:53;;;;;;;2.90;1.67;;;16.40;59.80;;;;;;5067172;28;20466;-73
2022/04/19 10:44:29;;;;;;;2.33;2.10;;;16.40;60.30;;;;;;5073019;28;21339;-73
2022/04/19 10:47:15;;;;;;;2.00;1.80;;;16.40;59.90;;;;;;5071184;28;20480;-73
2022/04/19 10:49:50;;;;;;;1.87;1.77;;;16.40;60.10;;;;;;5073558;28;20453;-73
2022/04/19 10:52:52;;;;;;;1.87;1.67;;;16.40;59.80;;;;;;5072602;28;20519;-72
2022/04/19 10:55:31;;;;;;;1.97;1.60;;;16.40;60.30;;;;;;5071066;28;20457;-73
2022/04/19 10:58:16;;;;;;;3.50;2.27;;;16.40;60.20;;;;;;5063514;28;20466;-74
2022/04/19 11:00:49;;;;;;;2.70;1.97;;;16.40;60.40;;;;;;5073212;28;20438;-73
2022/04/19 11:03:46;;;;;;;1.90;1.60;;;16.40;60.40;;;;;;5069679;28;20458;-72
2022/04/19 11:06:37;;;;;;;1.60;1.50;;;16.40;60.40;;;;;;5066204;28;20461;-73
2022/04/19 11:09:15;;;;;;;2.53;2.07;;;16.40;60.40;;;;;;5069268;28;20448;-72
2022/04/19 11:11:51;;;;;;;2.43;2.00;;;16.40;60.40;;;;;;5061324;28;20462;-73
2022/04/19 11:14:45;;;;;;;1.87;1.70;;;16.40;60.40;;;;;;5067453;28;20464;-73
2022/04/19 11:17:28;;;;;;;2.13;1.93;;;16.40;60.40;;;;;;5065832;28;20462;-73
2022/04/19 11:20:10;;;;;;;2.50;2.30;;;16.40;60.40;;;;;;5072351;28;20442;-73
2022/04/19 11:22:51;;;;;;;2.03;1.60;;;16.40;60.40;;;;;;5072308;28;20481;-73
2022/04/19 11:25:39;;;;;;;1.40;1.30;;;16.40;60.40;;;;;;5070743;28;21022;-73
2022/04/19 11:28:28;;;;;;;2.40;1.90;;;16.40;60.30;;;;;;5056996;28;20466;-73
2022/04/19 11:31:15;;;;;;;2.80;1.73;;;16.40;60.40;;;;;;5071257;28;20441;-73
2022/04/19 11:33:44;;;;;;;2.40;2.20;;;16.40;60.00;;;;;;5061620;28;20466;-73
2022/04/19 11:36:15;;;;;;;4.70;2.90;;;16.40;60.00;;;;;;5070883;28;20533;-73
2022/04/19 11:38:47;;;;;;;4.87;3.37;;;16.50;58.70;;;;;;5070955;28;20434;-73
2022/04/19 11:47:01;;;;;;;9.53;4.30;;;16.50;55.70;;;;;;5070835;28;20467;-72
2022/04/19 11:49:35;;;;;;;5.47;3.20;;;16.60;54.20;;;;;;5069341;28;20473;-73
2022/04/19 11:52:09;;;;;;;8.80;4.60;;;16.70;54.10;;;;;;5071631;28;21045;-73
2022/04/19 11:54:39;;;;;;;7.67;4.70;;;16.70;52.80;;;;;;5069869;28;20465;-73
2022/04/19 11:57:08;;;;;;;6.37;4.73;;;16.70;51.30;;;;;;5071643;28;20474;-72
2022/04/19 11:59:39;;;;;;;6.10;5.30;;;16.70;50.80;;;;;;5064809;28;20785;-72
2022/04/19 12:02:14;;;;;;;6.00;4.40;;;16.80;50.30;;;;;;5059563;28;20548;-73
2022/04/19 12:04:53;;;;;;;6.37;5.10;;;16.80;50.50;;;;;;5070791;28;20481;-72
2022/04/19 12:07:23;;;;;;;7.97;5.13;;;16.80;50.80;;;;;;5069705;28;20520;-74
2022/04/19 12:09:53;;;;;;;5.33;4.70;;;16.80;50.30;;;;;;5069407;28;20446;-72
2022/04/19 12:12:22;;;;;;;5.60;4.40;;;16.80;50.20;;;;;;5068765;28;21013;-73
2022/04/19 12:14:59;;;;;;;6.27;5.67;;;16.80;50.00;;;;;;5061738;28;20450;-72
2022/04/19 12:17:27;;;;;;;8.17;5.70;;;16.80;49.80;;;;;;5068460;28;20474;-73
2022/04/19 12:20:02;;;;;;;6.60;5.60;;;16.90;49.60;;;;;;5071819;28;20500;-73
2022/04/19 12:22:34;;;;;;;5.00;4.27;;;16.90;50.00;;;;;;5071766;28;21025;-73
2022/04/19 12:25:06;;;;;;;5.63;4.40;;;16.80;50.10;;;;;;5059069;28;20482;-74
2022/04/19 12:27:37;;;;;;;5.87;4.33;;;16.80;50.90;;;;;;5051798;28;20463;-73
2022/04/19 12:30:09;;;;;;;5.50;3.90;;;16.70;51.10;;;;;;5052121;28;20473;-73
2022/04/19 12:32:51;;;;;;;4.73;3.90;;;16.70;51.40;;;;;;5051427;28;20479;-73
2022/04/19 12:35:25;;;;;;;5.10;4.30;;;16.70;51.90;;;;;;5051443;28;20451;-73
2022/04/19 12:38:10;;;;;;;4.17;3.77;;;16.70;52.20;;;;;;5051408;28;20467;-72
2022/04/19 12:40:40;;;;;;;5.70;3.67;;;16.70;52.70;;;;;;5052149;28;20842;-73
2022/04/19 12:43:09;;;;;;;5.00;3.63;;;16.60;52.60;;;;;;5051223;28;20529;-73
2022/04/19 12:45:40;;;;;;;3.80;3.40;;;16.70;52.80;;;;;;5051451;28;20482;-73
2022/04/19 12:48:18;;;;;;;4.00;3.37;;;16.70;53.20;;;;;;5050987;28;20549;-73
2022/04/19 12:50:46;;;;;;;2.80;2.60;;;16.60;53.40;;;;;;5050333;28;20993;-73
2022/04/19 12:53:24;;;;;;;3.70;3.33;;;16.70;53.60;;;;;;5051805;28;20423;-73
2022/04/19 12:55:54;;;;;;;3.13;2.83;;;16.70;53.70;;;;;;5051883;28;20466;-73
2022/04/19 12:58:22;;;;;;;3.03;2.60;;;16.60;53.80;;;;;;5071402;28;20488;-74
2022/04/19 13:00:50;;;;;;;4.93;3.00;;;16.70;54.30;;;;;;5071424;28;20430;-73
2022/04/19 13:03:18;;;;;;;4.83;2.90;;;16.60;54.40;;;;;;5059438;28;20450;-73
2022/04/19 13:14:05;;;;;;;2.70;2.50;;;16.70;55.10;;;;;;5051030;28;20840;-74
2022/04/19 13:16:35;;;;;;;2.93;2.60;;;16.70;55.30;;;;;;5051012;28;20459;-73
2022/04/19 13:19:03;;;;;;;2.27;2.07;;;16.70;55.50;;;;;;5051155;28;20431;-73
2022/04/19 13:21:31;;;;;;;2.70;2.50;;;16.70;55.50;;;;;;5051052;28;20467;-73
2022/04/19 13:24:07;;;;;;;2.23;2.03;;;16.70;55.60;;;;;;5052239;28;20481;-74
2022/04/19 13:26:36;;;;;;;2.30;2.10;;;16.70;55.60;;;;;;5057786;28;20903;-73
2022/04/19 13:29:08;;;;;;;3.00;2.70;;;16.70;55.80;;;;;;5052572;28;20431;-73
2022/04/19 13:31:36;;;;;;;2.50;2.30;;;16.70;55.90;;;;;;5070481;28;21044;-73
2022/04/19 13:34:05;;;;;;;2.50;2.13;;;16.70;56.00;;;;;;5064592;28;20459;-73
2022/04/19 13:36:33;;;;;;;2.83;2.20;;;16.70;56.10;;;;;;5050572;28;20520;-73
2022/04/19 13:39:01;;;;;;;2.40;2.20;;;16.80;56.40;;;;;;5051136;28;20501;-73
2022/04/19 13:41:29;;;;;;;2.37;1.43;;;16.80;56.20;;;;;;5050794;28;21019;-73
2022/04/19 13:43:59;;;;;;;2.90;2.07;;;16.80;56.40;;;;;;5057421;28;20541;-73
2022/04/19 13:46:28;;;;;;;5.23;2.10;;;16.80;56.20;;;;;;5069911;28;20462;-74
2022/04/19 13:48:56;;;;;;;6.40;3.13;;;16.80;56.50;;;;;;5070077;28;20946;-73
2022/04/19 13:51:24;;;;;;;2.33;2.10;;;16.90;56.00;;;;;;5065436;28;20524;-73
2022/04/19 13:53:52;;;;;;;3.13;2.17;;;17.00;54.60;;;;;;5058885;28;20466;-73
2022/04/19 13:56:20;;;;;;;3.80;2.77;;;17.10;53.50;;;;;;5066100;28;20458;-73
2022/04/19 13:58:48;;;;;;;4.13;2.70;;;17.10;52.80;;;;;;5070676;28;20434;-73
2022/04/19 14:01:18;;;;;;;4.90;2.97;;;17.20;52.30;;;;;;5068685;28;20511;-73